Time;durP1;ratioP1;P1;durP2;ratioP2;P2;SDS_P1;SDS_P2;PMS_P1;PMS_P2;Temp;Humidity;BMP_temperature;BMP_pressure;BME280_temperature;BME280_humidity;BME280_pressure;Samples;Min_cycle;Max_cycle;Signal;HPM_P1;HPM_P2
2022/08/13 00:00:59;;;;;;;3.00;1.60;;;;;;;;;;4927638;28;20203;-74
2022/08/13 00:03:29;;;;;;;2.43;1.60;;;;;;;;;;4921882;28;20455;-74
2022/08/13 00:05:54;;;;;;;2.23;1.60;;;;;;;;;;4923117;28;20191;-74
2022/08/13 00:08:23;;;;;;;2.30;1.40;;;;;;;;;;4939246;28;20185;-74
2022/08/13 00:10:48;;;;;;;1.77;1.60;;;;;;;;;;4933503;28;20195;-74
2022/08/13 00:13:16;;;;;;;2.10;1.73;;;;;;;;;;4937422;28;20188;-74
2022/08/13 00:15:43;;;;;;;1.57;1.47;;;;;;;;;;4935817;28;20205;-73
2022/08/13 00:18:10;;;;;;;1.50;1.40;;;;;;;;;;4940543;28;20184;-74
2022/08/13 00:20:38;;;;;;;2.13;1.83;;;;;;;;;;4916143;29;20188;-74
2022/08/13 00:23:06;;;;;;;1.80;1.70;;;;;;;;;;4915107;28;20205;-74
2022/08/13 00:25:32;;;;;;;1.53;1.43;;;;;;;;;;4932290;28;20178;-74
2022/08/13 00:27:58;;;;;;;4.77;1.70;;;;;;;;;;4914718;29;20196;-74
2022/08/13 00:30:26;;;;;;;3.20;1.70;;;;;;;;;;4916278;28;20206;-74
2022/08/13 00:32:52;;;;;;;1.77;1.67;;;;;;;;;;4919424;29;20178;-73
2022/08/13 00:35:18;;;;;;;2.70;1.57;;;;;;;;;;4915290;29;20455;-74
2022/08/13 00:37:43;;;;;;;4.20;1.60;;;;;;;;;;4926925;28;20218;-74
2022/08/13 00:40:09;;;;;;;3.07;1.70;;;;;;;;;;4920902;28;20464;-74
2022/08/13 00:42:35;;;;;;;2.37;1.80;;;;;;;;;;4927654;28;20181;-74
2022/08/13 00:45:00;;;;;;;1.57;1.47;;;;;;;;;;4915134;29;20264;-74
2022/08/13 00:50:15;;;;;;;1.90;1.63;;;;;;;;;;4938380;28;20674;-74
2022/08/13 00:52:41;;;;;;;1.90;1.80;;;;;;;;;;4935545;28;20221;-74
2022/08/13 00:55:07;;;;;;;1.67;1.57;;;;;;;;;;4931411;28;20217;-74
2022/08/13 00:57:33;;;;;;;1.97;1.87;;;;;;;;;;4919286;29;20213;-74
2022/08/13 00:59:58;;;;;;;1.97;1.70;;;;;;;;;;4909195;29;20189;-74
2022/08/13 01:02:24;;;;;;;3.70;2.13;;;;;;;;;;4931501;28;20186;-74
2022/08/13 01:04:50;;;;;;;1.73;1.63;;;;;;;;;;4931047;28;20185;-74
2022/08/13 01:07:15;;;;;;;1.73;1.63;;;;;;;;;;4934830;29;20178;-74
2022/08/13 01:09:40;;;;;;;1.77;1.67;;;;;;;;;;4920603;29;20230;-74
2022/08/13 01:12:09;;;;;;;1.90;1.80;;;;;;;;;;4926159;28;20194;-73
2022/08/13 01:14:37;;;;;;;2.13;1.63;;;;;;;;;;4938172;28;20185;-74
2022/08/13 01:17:03;;;;;;;1.90;1.73;;;;;;;;;;4913958;29;20221;-74
2022/08/13 01:19:30;;;;;;;1.80;1.70;;;;;;;;;;4937614;28;20234;-74
2022/08/13 01:21:57;;;;;;;2.03;1.80;;;;;;;;;;4940425;28;20284;-74
2022/08/13 01:24:23;;;;;;;2.23;1.90;;;;;;;;;;4920199;28;20185;-73
2022/08/13 01:26:48;;;;;;;2.60;1.73;;;;;;;;;;4926095;29;20196;-74
2022/08/13 01:29:16;;;;;;;2.07;1.90;;;;;;;;;;4922688;29;20269;-74
2022/08/13 01:31:41;;;;;;;3.50;2.00;;;;;;;;;;4924230;28;20184;-74
2022/08/13 01:34:07;;;;;;;2.10;1.90;;;;;;;;;;4923497;28;20196;-74
2022/08/13 01:36:34;;;;;;;1.83;1.73;;;;;;;;;;4921857;29;20219;-74
2022/08/13 01:39:03;;;;;;;2.13;2.00;;;;;;;;;;4938307;28;20233;-74
2022/08/13 01:41:29;;;;;;;1.80;1.70;;;;;;;;;;4922605;29;20494;-74
2022/08/13 01:44:00;;;;;;;2.23;2.07;;;;;;;;;;4937310;28;20241;-73
2022/08/13 01:46:25;;;;;;;1.77;1.63;;;;;;;;;;4938200;28;20230;-74
2022/08/13 01:51:35;;;;;;;3.07;1.90;;;;;;;;;;4939055;28;20220;-74
2022/08/13 01:54:01;;;;;;;2.57;2.00;;;;;;;;;;4921908;29;20193;-74
2022/08/13 01:56:30;;;;;;;3.67;1.80;;;;;;;;;;4915175;28;20550;-74
2022/08/13 01:58:57;;;;;;;2.13;1.93;;;;;;;;;;4941071;28;20189;-74
2022/08/13 02:01:25;;;;;;;2.33;1.40;;;;;;;;;;4914375;29;20182;-74
2022/08/13 02:03:50;;;;;;;2.63;1.80;;;;;;;;;;4936960;28;20271;-73
2022/08/13 02:06:26;;;;;;;2.87;1.97;;;;;;;;;;4934693;28;20279;-74
2022/08/13 02:08:52;;;;;;;1.63;1.53;;;;;;;;;;4923908;29;20218;-74
2022/08/13 02:11:17;;;;;;;2.00;1.90;;;;;;;;;;4914998;28;20189;-73
2022/08/13 02:13:43;;;;;;;2.27;1.80;;;;;;;;;;4919044;29;20193;-74
2022/08/13 02:16:08;;;;;;;2.00;1.80;;;;;;;;;;4929751;28;20216;-74
2022/08/13 02:18:33;;;;;;;2.43;1.70;;;;;;;;;;4932361;29;20185;-73
2022/08/13 02:21:00;;;;;;;3.40;1.67;;;;;;;;;;4922605;29;20185;-74
2022/08/13 02:23:27;;;;;;;1.93;1.83;;;;;;;;;;4927024;28;20252;-74
2022/08/13 02:25:52;;;;;;;3.50;1.80;;;;;;;;;;4918569;28;20215;-74
2022/08/13 02:28:21;;;;;;;2.30;1.83;;;;;;;;;;4938040;28;20226;-74
2022/08/13 02:30:51;;;;;;;2.17;2.00;;;;;;;;;;4949013;28;20210;-74
2022/08/13 02:33:17;;;;;;;2.00;1.80;;;;;;;;;;4922164;28;20185;-74
2022/08/13 02:35:42;;;;;;;1.87;1.60;;;;;;;;;;4923410;28;20246;-74
2022/08/13 02:38:11;;;;;;;4.67;2.17;;;;;;;;;;4944532;28;20266;-73
2022/08/13 02:43:24;;;;;;;1.90;1.80;;;;;;;;;;4938680;28;20188;-73
2022/08/13 02:45:50;;;;;;;2.17;2.00;;;;;;;;;;4940239;28;20192;-74
2022/08/13 02:48:17;;;;;;;3.43;1.70;;;;;;;;;;4918055;29;20188;-74
2022/08/13 02:50:45;;;;;;;2.03;1.83;;;;;;;;;;4912158;29;20377;-74
2022/08/13 02:53:13;;;;;;;2.03;1.80;;;;;;;;;;4936810;28;20213;-74
2022/08/13 02:55:38;;;;;;;3.10;1.90;;;;;;;;;;4941182;28;20215;-74
2022/08/13 02:58:04;;;;;;;2.97;1.87;;;;;;;;;;4925069;29;20280;-73
2022/08/13 03:00:30;;;;;;;1.90;1.80;;;;;;;;;;4919958;29;20441;-74
2022/08/13 03:02:56;;;;;;;3.17;1.73;;;;;;;;;;4930247;29;20189;-74
2022/08/13 03:05:21;;;;;;;2.17;1.97;;;;;;;;;;4927649;28;20277;-74
2022/08/13 03:07:48;;;;;;;2.13;2.00;;;;;;;;;;4923045;28;20332;-74
2022/08/13 03:10:15;;;;;;;1.90;1.80;;;;;;;;;;4914335;29;20293;-74
2022/08/13 03:12:42;;;;;;;2.50;2.30;;;;;;;;;;4919897;29;20240;-74
2022/08/13 03:15:12;;;;;;;3.87;2.10;;;;;;;;;;4918795;29;20196;-74
2022/08/13 03:17:37;;;;;;;2.07;1.87;;;;;;;;;;4938437;28;20212;-74
2022/08/13 03:20:07;;;;;;;3.17;2.03;;;;;;;;;;4937060;28;20232;-74
2022/08/13 03:22:45;;;;;;;3.33;2.50;;;;;;;;;;4923764;28;20200;-73
2022/08/13 03:25:10;;;;;;;2.23;2.03;;;;;;;;;;4909699;28;20192;-74
2022/08/13 03:27:35;;;;;;;3.67;2.23;;;;;;;;;;4941708;28;20176;-74
2022/08/13 03:30:01;;;;;;;3.00;1.73;;;;;;;;;;4925633;28;20189;-74
2022/08/13 03:32:27;;;;;;;2.10;1.90;;;;;;;;;;4930145;28;20191;-74
2022/08/13 03:34:52;;;;;;;2.47;2.10;;;;;;;;;;4937232;28;20185;-74
2022/08/13 03:37:17;;;;;;;2.40;2.20;;;;;;;;;;4937195;28;20260;-74
2022/08/13 03:39:43;;;;;;;2.03;1.93;;;;;;;;;;4917229;29;20196;-74
2022/08/13 03:42:09;;;;;;;4.47;2.13;;;;;;;;;;4926231;28;20194;-74
2022/08/13 03:44:34;;;;;;;2.47;2.10;;;;;;;;;;4935423;28;20187;-74
2022/08/13 03:46:59;;;;;;;2.20;1.97;;;;;;;;;;4922182;29;20406;-74
2022/08/13 03:49:26;;;;;;;2.90;2.27;;;;;;;;;;4928000;28;20200;-73
2022/08/13 03:51:51;;;;;;;2.83;1.90;;;;;;;;;;4920981;28;20260;-74
2022/08/13 03:54:16;;;;;;;4.00;2.30;;;;;;;;;;4916839;29;20508;-74
2022/08/13 03:56:45;;;;;;;3.90;2.30;;;;;;;;;;4932069;29;20203;-74
2022/08/13 03:59:13;;;;;;;19.00;2.87;;;;;;;;;;4917191;29;20191;-74
2022/08/13 04:01:38;;;;;;;27.73;4.67;;;;;;;;;;4936971;28;20184;-73
2022/08/13 04:04:05;;;;;;;4.50;2.40;;;;;;;;;;4924263;29;20193;-73
2022/08/13 04:06:30;;;;;;;8.17;2.20;;;;;;;;;;4933924;28;20176;-73
2022/08/13 04:08:58;;;;;;;16.63;2.73;;;;;;;;;;4936523;28;20221;-73
2022/08/13 04:11:23;;;;;;;3.07;2.20;;;;;;;;;;4919257;29;20179;-73
2022/08/13 04:13:48;;;;;;;2.57;2.07;;;;;;;;;;4936647;28;20175;-73
2022/08/13 04:16:21;;;;;;;3.10;2.20;;;;;;;;;;4927483;29;20213;-73
2022/08/13 04:18:46;;;;;;;2.53;2.33;;;;;;;;;;4932955;28;20451;-74
2022/08/13 04:21:14;;;;;;;2.30;2.17;;;;;;;;;;4933594;28;20183;-73
2022/08/13 04:23:41;;;;;;;2.90;2.13;;;;;;;;;;4921684;29;20197;-74
2022/08/13 04:26:08;;;;;;;8.70;3.13;;;;;;;;;;4942884;28;20189;-73
2022/08/13 04:28:33;;;;;;;2.67;2.37;;;;;;;;;;4918594;28;20175;-73
2022/08/13 04:31:00;;;;;;;3.03;2.40;;;;;;;;;;4935698;28;20170;-73
2022/08/13 04:33:26;;;;;;;2.50;2.30;;;;;;;;;;4926988;28;20448;-73
2022/08/13 04:35:51;;;;;;;8.53;5.37;;;;;;;;;;4912335;29;20356;-73
2022/08/13 04:38:17;;;;;;;2.20;2.10;;;;;;;;;;4930607;28;20233;-73
2022/08/13 04:40:43;;;;;;;2.50;2.30;;;;;;;;;;4916137;29;20180;-74
2022/08/13 04:43:10;;;;;;;2.60;2.40;;;;;;;;;;4927317;28;20243;-73
2022/08/13 04:45:36;;;;;;;2.80;2.63;;;;;;;;;;4915958;29;20183;-73
2022/08/13 04:48:07;;;;;;;2.50;2.30;;;;;;;;;;4914365;29;20321;-73
2022/08/13 04:50:34;;;;;;;2.70;2.50;;;;;;;;;;4927038;29;20272;-73
2022/08/13 04:53:00;;;;;;;2.60;2.40;;;;;;;;;;4919282;29;20204;-73
2022/08/13 04:55:25;;;;;;;2.60;2.20;;;;;;;;;;4923315;29;20175;-74
2022/08/13 04:57:51;;;;;;;5.20;2.70;;;;;;;;;;4912623;29;20293;-73
2022/08/13 05:00:16;;;;;;;3.23;3.03;;;;;;;;;;4908487;29;20183;-73
2022/08/13 05:02:43;;;;;;;2.80;2.60;;;;;;;;;;4914035;29;20175;-73
2022/08/13 05:05:11;;;;;;;3.13;2.50;;;;;;;;;;4914385;29;20181;-73
2022/08/13 05:07:36;;;;;;;2.77;2.53;;;;;;;;;;4917832;29;20188;-73
2022/08/13 05:10:02;;;;;;;2.23;2.10;;;;;;;;;;4911534;29;20211;-73
2022/08/13 05:12:27;;;;;;;2.97;2.67;;;;;;;;;;4918008;29;20175;-73
2022/08/13 05:14:52;;;;;;;4.33;2.80;;;;;;;;;;4919297;28;20192;-73
2022/08/13 05:17:18;;;;;;;5.33;2.50;;;;;;;;;;4918920;29;20213;-73
2022/08/13 05:19:47;;;;;;;3.87;2.40;;;;;;;;;;4918901;29;20261;-74
2022/08/13 05:22:13;;;;;;;3.50;2.60;;;;;;;;;;4922349;29;20322;-73
2022/08/13 05:24:38;;;;;;;2.43;2.20;;;;;;;;;;4908789;29;20484;-74
2022/08/13 05:27:04;;;;;;;6.07;3.30;;;;;;;;;;4919871;29;20182;-73
2022/08/13 05:29:29;;;;;;;2.40;2.20;;;;;;;;;;4919806;29;20191;-73
2022/08/13 05:31:56;;;;;;;2.60;2.40;;;;;;;;;;4916056;29;20182;-73
2022/08/13 05:34:21;;;;;;;5.30;2.60;;;;;;;;;;4905331;29;20194;-74
2022/08/13 05:36:47;;;;;;;2.83;2.00;;;;;;;;;;4911375;29;20202;-73
2022/08/13 05:39:13;;;;;;;2.63;2.40;;;;;;;;;;4884137;28;1184631;-74
2022/08/13 05:41:42;;;;;;;7.30;4.33;;;;;;;;;;4911052;29;20598;-74
2022/08/13 05:44:08;;;;;;;2.50;2.30;;;;;;;;;;4936500;28;20186;-74
2022/08/13 05:46:34;;;;;;;3.37;2.30;;;;;;;;;;4922171;29;20190;-73
2022/08/13 05:48:59;;;;;;;2.20;2.10;;;;;;;;;;4917087;29;20303;-74
2022/08/13 05:51:33;;;;;;;3.17;2.20;;;;;;;;;;4935553;28;20187;-74
2022/08/13 05:53:59;;;;;;;3.00;2.20;;;;;;;;;;4942340;28;20192;-74
2022/08/13 05:56:36;;;;;;;2.17;1.90;;;;;;;;;;4934192;28;20211;-73
2022/08/13 05:59:02;;;;;;;3.03;2.40;;;;;;;;;;4941869;28;20186;-74
2022/08/13 06:04:22;;;;;;;2.50;2.30;;;;;;;;;;4935521;28;20317;-74
2022/08/13 06:06:47;;;;;;;3.17;2.20;;;;;;;;;;4915537;29;20187;-74
2022/08/13 06:09:13;;;;;;;2.57;2.37;;;;;;;;;;4946492;28;20191;-74
2022/08/13 06:11:42;;;;;;;3.30;2.60;;;;;;;;;;4916171;29;20218;-73
2022/08/13 06:14:08;;;;;;;3.30;2.47;;;;;;;;;;4917966;28;20497;-74
2022/08/13 06:16:35;;;;;;;3.67;2.30;;;;;;;;;;4928884;28;20201;-74
2022/08/13 06:19:00;;;;;;;3.00;2.70;;;;;;;;;;4921893;29;20443;-73
2022/08/13 06:21:26;;;;;;;2.50;2.30;;;;;;;;;;4917672;28;20182;-74
2022/08/13 06:23:52;;;;;;;2.07;1.97;;;;;;;;;;4908339;29;20198;-74
2022/08/13 06:26:19;;;;;;;2.70;2.00;;;;;;;;;;4939170;28;20199;-73
2022/08/13 06:28:45;;;;;;;6.13;2.20;;;;;;;;;;4930325;28;20538;-74
2022/08/13 06:31:16;;;;;;;2.17;2.07;;;;;;;;;;4943281;28;20209;-74
2022/08/13 06:33:42;;;;;;;2.20;2.07;;;;;;;;;;4933944;28;20193;-74
2022/08/13 06:36:09;;;;;;;2.20;2.10;;;;;;;;;;4928446;28;20538;-73
2022/08/13 06:38:41;;;;;;;5.07;2.10;;;;;;;;;;4918688;29;20231;-73
2022/08/13 06:41:07;;;;;;;2.50;2.30;;;;;;;;;;4920295;28;20220;-74
2022/08/13 06:43:35;;;;;;;2.60;2.40;;;;;;;;;;4910695;29;20368;-74
2022/08/13 06:46:01;;;;;;;2.53;2.30;;;;;;;;;;4913882;29;20196;-73
2022/08/13 06:48:27;;;;;;;3.93;2.40;;;;;;;;;;4914993;29;20211;-74
2022/08/13 06:50:52;;;;;;;2.43;2.23;;;;;;;;;;4919841;29;20185;-74
2022/08/13 06:53:18;;;;;;;3.20;2.47;;;;;;;;;;4906486;29;20261;-74
2022/08/13 06:55:45;;;;;;;4.63;2.40;;;;;;;;;;4922126;29;20446;-74
2022/08/13 06:58:11;;;;;;;2.40;2.30;;;;;;;;;;4917151;28;20179;-74
2022/08/13 07:00:38;;;;;;;3.30;2.60;;;;;;;;;;4917261;29;20190;-74
2022/08/13 07:03:04;;;;;;;2.77;2.53;;;;;;;;;;4919266;29;20187;-74
2022/08/13 07:05:38;;;;;;;2.90;2.60;;;;;;;;;;4924466;29;20337;-74
2022/08/13 07:08:04;;;;;;;3.63;2.47;;;;;;;;;;4915099;28;20209;-74
2022/08/13 07:10:31;;;;;;;2.83;2.37;;;;;;;;;;4914396;29;20186;-74
2022/08/13 07:12:57;;;;;;;2.83;2.20;;;;;;;;;;4918483;29;20219;-74
2022/08/13 07:15:23;;;;;;;3.27;2.60;;;;;;;;;;4922529;29;20185;-75
2022/08/13 07:17:50;;;;;;;2.43;2.33;;;;;;;;;;4917070;28;20215;-74
2022/08/13 07:20:16;;;;;;;3.77;2.50;;;;;;;;;;4923553;29;20258;-74
2022/08/13 07:22:41;;;;;;;2.50;2.30;;;;;;;;;;4912110;29;20291;-74
2022/08/13 07:25:09;;;;;;;3.07;2.27;;;;;;;;;;4909527;29;20188;-74
2022/08/13 07:27:35;;;;;;;3.17;2.07;;;;;;;;;;4916649;29;20328;-74
2022/08/13 07:30:01;;;;;;;2.60;2.40;;;;;;;;;;4920361;29;20189;-74
2022/08/13 07:32:27;;;;;;;2.53;2.33;;;;;;;;;;4912492;29;20243;-74
2022/08/13 07:34:52;;;;;;;3.03;2.20;;;;;;;;;;4912872;29;20339;-74
2022/08/13 07:37:22;;;;;;;2.77;2.20;;;;;;;;;;4912698;29;20628;-74
2022/08/13 07:39:47;;;;;;;3.30;2.40;;;;;;;;;;4924602;28;20315;-74
2022/08/13 07:42:15;;;;;;;2.33;2.20;;;;;;;;;;4939988;28;20282;-74
2022/08/13 07:44:40;;;;;;;2.70;2.50;;;;;;;;;;4934929;28;20234;-74
2022/08/13 07:47:11;;;;;;;2.97;2.40;;;;;;;;;;4926801;28;20431;-73
2022/08/13 07:49:36;;;;;;;2.13;1.93;;;;;;;;;;4924223;28;20212;-74
2022/08/13 07:52:02;;;;;;;2.83;2.20;;;;;;;;;;4935989;29;20280;-74
2022/08/13 07:54:27;;;;;;;3.30;2.10;;;;;;;;;;4918329;29;20345;-74
2022/08/13 07:56:53;;;;;;;2.77;2.57;;;;;;;;;;4942985;28;20211;-73
2022/08/13 07:59:20;;;;;;;2.33;2.17;;;;;;;;;;4928216;28;20193;-73
2022/08/13 08:01:50;;;;;;;2.53;2.27;;;;;;;;;;4914940;29;20500;-85
2022/08/13 08:04:16;;;;;;;2.27;2.17;;;;;;;;;;4915682;29;20212;-81
2022/08/13 08:06:46;;;;;;;2.63;1.87;;;;;;;;;;4914123;29;20242;-85
2022/08/13 08:09:18;;;;;;;2.13;1.97;;;;;;;;;;4940911;28;20287;-83
2022/08/13 08:14:27;;;;;;;2.47;2.30;;;;;;;;;;4943010;28;20249;-83
2022/08/13 08:16:53;;;;;;;2.57;2.17;;;;;;;;;;4919544;29;20204;-84
2022/08/13 08:19:19;;;;;;;2.30;2.10;;;;;;;;;;4934004;28;20181;-85
2022/08/13 08:21:46;;;;;;;5.40;2.47;;;;;;;;;;4928163;29;20728;-87
2022/08/13 08:24:13;;;;;;;3.13;1.83;;;;;;;;;;4921047;28;20530;-82
2022/08/13 08:26:39;;;;;;;2.30;2.10;;;;;;;;;;4918373;29;20190;-83
2022/08/13 08:29:09;;;;;;;6.63;2.17;;;;;;;;;;4925447;28;20254;-86
2022/08/13 08:31:38;;;;;;;3.27;2.13;;;;;;;;;;4940894;28;20183;-82
2022/08/13 08:34:03;;;;;;;2.13;2.00;;;;;;;;;;4910506;28;20289;-85
2022/08/13 08:36:28;;;;;;;3.77;2.03;;;;;;;;;;4920931;28;20240;-85
2022/08/13 08:44:24;;;;;;;2.30;2.20;;;;;;;;;;4931673;28;20207;-85
2022/08/13 08:46:51;;;;;;;2.30;2.10;;;;;;;;;;4914107;29;20195;-86
2022/08/13 08:49:16;;;;;;;2.60;2.40;;;;;;;;;;4930190;29;20211;-84
2022/08/13 08:51:42;;;;;;;2.00;1.90;;;;;;;;;;4923794;29;20465;-83
2022/08/13 08:54:08;;;;;;;2.00;1.90;;;;;;;;;;4912181;28;20192;-83
2022/08/13 08:56:34;;;;;;;2.43;2.13;;;;;;;;;;4922471;29;20212;-81
2022/08/13 08:59:00;;;;;;;2.30;2.10;;;;;;;;;;4910519;29;20188;-87
2022/08/13 09:01:25;;;;;;;2.90;2.37;;;;;;;;;;4917124;29;20199;-84
2022/08/13 09:03:53;;;;;;;2.67;2.00;;;;;;;;;;4915021;29;20176;-84
2022/08/13 09:06:18;;;;;;;2.27;2.07;;;;;;;;;;4919990;28;20839;-83
2022/08/13 09:08:46;;;;;;;2.27;1.97;;;;;;;;;;4919475;29;20288;-82
2022/08/13 09:11:12;;;;;;;2.17;2.03;;;;;;;;;;4917383;28;20201;-81
2022/08/13 09:13:38;;;;;;;3.30;2.00;;;;;;;;;;4915907;28;20285;-75
2022/08/13 09:16:03;;;;;;;2.00;1.90;;;;;;;;;;4934279;28;20303;-74
2022/08/13 09:18:31;;;;;;;2.40;2.20;;;;;;;;;;4918542;28;20304;-73
2022/08/13 09:20:56;;;;;;;4.15;2.25;;;;;;;;;;4932639;28;20186;-73
2022/08/13 09:23:22;;;;;;;4.70;2.63;;;;;;;;;;4913780;28;20203;-73
2022/08/13 09:25:50;;;;;;;2.20;2.00;;;;;;;;;;4915399;29;20185;-74
2022/08/13 09:28:17;;;;;;;3.10;2.40;;;;;;;;;;4918255;28;20190;-73
2022/08/13 09:30:45;;;;;;;4.10;1.80;;;;;;;;;;4928044;28;20268;-73
2022/08/13 09:33:12;;;;;;;2.00;1.90;;;;;;;;;;4937895;28;20391;-73
2022/08/13 09:35:39;;;;;;;2.50;2.30;;;;;;;;;;4925509;29;20193;-73
2022/08/13 14:51:09;;;;;;;2.63;2.03;;;;;;;;;;4934418;29;20237;-73
2022/08/13 14:53:36;;;;;;;1.77;1.67;;;;;;;;;;4941437;28;20201;-73
2022/08/13 14:56:01;;;;;;;2.75;1.88;;;;;;;;;;4920794;29;20193;-73
2022/08/13 14:58:27;;;;;;;2.75;1.90;;;;;;;;;;4943718;28;20186;-73
2022/08/13 15:00:55;;;;;;;1.80;1.70;;;;;;;;;;4938497;29;20178;-73
2022/08/13 15:03:21;;;;;;;3.08;1.88;;;;;;;;;;4925594;29;20178;-73
2022/08/13 15:05:48;;;;;;;2.10;1.90;;;;;;;;;;4941008;29;20445;-73
2022/08/13 15:08:18;;;;;;;1.80;1.70;;;;;;;;;;4942574;29;20189;-73
2022/08/13 15:10:48;;;;;;;2.92;2.05;;;;;;;;;;4925610;29;20295;-73
2022/08/13 15:13:14;;;;;;;3.33;2.55;;;;;;;;;;4930560;29;20189;-73
2022/08/13 15:15:39;;;;;;;2.50;2.40;;;;;;;;;;4939595;28;20468;-73
2022/08/13 15:18:05;;;;;;;2.38;1.95;;;;;;;;;;4940997;28;20206;-71
2022/08/13 15:20:31;;;;;;;36.70;4.15;;;;;;;;;;4941080;29;20186;-72
2022/08/13 15:22:57;;;;;;;4.22;2.47;;;;;;;;;;4927296;29;20192;-72
2022/08/13 15:25:24;;;;;;;2.03;1.75;;;;;;;;;;4928046;29;20208;-72
2022/08/13 15:27:51;;;;;;;2.22;2.00;;;;;;;;;;4941773;28;20280;-72
2022/08/13 15:30:18;;;;;;;2.13;1.95;;;;;;;;;;4932312;28;20213;-72
2022/08/13 15:32:44;;;;;;;3.25;1.88;;;;;;;;;;4926686;29;20244;-72
2022/08/13 15:35:12;;;;;;;2.28;2.05;;;;;;;;;;4941985;29;20205;-73
2022/08/13 15:37:38;;;;;;;2.47;2.00;;;;;;;;;;4934407;28;20336;-72
2022/08/13 15:40:03;;;;;;;2.22;1.98;;;;;;;;;;4938451;28;20253;-72
2022/08/13 15:42:29;;;;;;;6.50;2.30;;;;;;;;;;4920059;29;20173;-73
2022/08/13 15:44:54;;;;;;;3.10;1.90;;;;;;;;;;4922341;29;20221;-73
2022/08/13 15:47:19;;;;;;;2.20;2.00;;;;;;;;;;4929077;29;20266;-73
2022/08/13 15:49:50;;;;;;;2.45;1.80;;;;;;;;;;4902009;29;20239;-73
2022/08/13 15:52:17;;;;;;;4.90;2.13;;;;;;;;;;4901837;29;20199;-73
2022/08/13 15:54:43;;;;;;;3.75;2.50;;;;;;;;;;4904476;29;20183;-73
2022/08/13 15:57:08;;;;;;;5.43;2.22;;;;;;;;;;4903196;29;20207;-73
2022/08/13 15:59:34;;;;;;;2.38;2.17;;;;;;;;;;4904734;29;20182;-73
2022/08/13 16:01:59;;;;;;;2.10;2.00;;;;;;;;;;4901805;29;20190;-73
2022/08/13 16:04:34;;;;;;;2.08;1.90;;;;;;;;;;4903079;29;20258;-73
2022/08/13 16:07:03;;;;;;;3.45;1.90;;;;;;;;;;4905625;29;20394;-73
2022/08/13 16:09:29;;;;;;;1.85;1.73;;;;;;;;;;4904561;29;20179;-73
2022/08/13 16:11:54;;;;;;;2.08;1.88;;;;;;;;;;4902539;29;20210;-73
2022/08/13 16:14:20;;;;;;;1.95;1.83;;;;;;;;;;4903338;29;20190;-73
2022/08/13 16:16:49;;;;;;;2.20;2.00;;;;;;;;;;4902222;29;20206;-73
2022/08/13 16:19:15;;;;;;;2.40;2.20;;;;;;;;;;4899379;29;20183;-73
2022/08/13 16:21:44;;;;;;;2.77;2.00;;;;;;;;;;4905047;29;20179;-73
2022/08/13 16:24:10;;;;;;;2.10;2.00;;;;;;;;;;4903613;29;20488;-74
2022/08/13 16:26:35;;;;;;;2.53;2.33;;;;;;;;;;4902301;29;20190;-73
2022/08/13 16:29:01;;;;;;;3.47;1.88;;;;;;;;;;4904768;29;20258;-73
2022/08/13 16:31:29;;;;;;;2.70;2.45;;;;;;;;;;4903141;29;20261;-73
2022/08/13 16:33:54;;;;;;;2.50;2.20;;;;;;;;;;4903084;29;20194;-73
2022/08/13 16:36:21;;;;;;;3.42;1.90;;;;;;;;;;4904588;29;20249;-73
2022/08/13 16:38:46;;;;;;;3.85;2.20;;;;;;;;;;4902621;29;20219;-73
2022/08/13 16:41:12;;;;;;;5.95;2.40;;;;;;;;;;4903336;29;20583;-73
2022/08/13 16:43:38;;;;;;;2.83;1.70;;;;;;;;;;4902077;29;20249;-73
2022/08/13 16:46:04;;;;;;;1.95;1.80;;;;;;;;;;4902688;29;20194;-73
2022/08/13 16:48:29;;;;;;;2.17;1.98;;;;;;;;;;4902803;29;20203;-73
2022/08/13 16:50:58;;;;;;;2.95;2.10;;;;;;;;;;4920436;29;20230;-73
2022/08/13 16:53:23;;;;;;;4.72;2.22;;;;;;;;;;4919778;29;20183;-73
2022/08/13 16:55:48;;;;;;;2.50;2.30;;;;;;;;;;4904587;29;20178;-73
2022/08/13 16:58:13;;;;;;;5.15;2.28;;;;;;;;;;4904605;29;20202;-73
2022/08/13 17:00:41;;;;;;;3.38;2.65;;;;;;;;;;4902249;29;20397;-73
2022/08/13 17:11:19;;;;;;;2.53;2.33;;;;;;;;;;4918270;29;20204;-73
2022/08/13 17:13:44;;;;;;;3.67;2.10;;;;;;;;;;4922198;29;20186;-73
2022/08/13 17:16:10;;;;;;;2.13;1.90;;;;;;;;;;4906320;29;20186;-73
2022/08/13 17:18:36;;;;;;;2.80;2.60;;;;;;;;;;4903786;29;20182;-73
2022/08/13 17:21:04;;;;;;;2.33;2.20;;;;;;;;;;4919781;29;20412;-73
2022/08/13 17:23:29;;;;;;;2.63;2.38;;;;;;;;;;4918910;29;20395;-73
2022/08/13 17:25:59;;;;;;;3.50;2.30;;;;;;;;;;4905445;29;20494;-73
2022/08/13 17:28:26;;;;;;;2.28;2.08;;;;;;;;;;4920707;29;20365;-73
2022/08/13 17:30:55;;;;;;;1.80;1.70;;;;;;;;;;4921713;29;20194;-73
2022/08/13 17:33:20;;;;;;;6.85;2.20;;;;;;;;;;4906361;29;20195;-73
2022/08/13 17:35:46;;;;;;;2.25;2.10;;;;;;;;;;4906032;29;20189;-73
2022/08/13 17:38:11;;;;;;;6.05;2.20;;;;;;;;;;4931174;29;20214;-73
2022/08/13 17:40:37;;;;;;;3.28;2.10;;;;;;;;;;4915060;29;20364;-73
2022/08/13 17:43:03;;;;;;;2.40;2.00;;;;;;;;;;4905442;29;20276;-73
2022/08/13 17:45:29;;;;;;;2.92;2.00;;;;;;;;;;4920351;29;20170;-73
2022/08/13 17:47:54;;;;;;;10.15;2.40;;;;;;;;;;4902125;29;20221;-73
2022/08/13 17:50:19;;;;;;;16.00;2.90;;;;;;;;;;4902060;29;20235;-73
2022/08/13 17:52:45;;;;;;;4.63;2.22;;;;;;;;;;4901593;29;20520;-73
2022/08/13 17:55:10;;;;;;;4.68;2.35;;;;;;;;;;4905592;29;20278;-73
2022/08/13 17:57:35;;;;;;;4.82;2.30;;;;;;;;;;4904285;29;20210;-73
2022/08/13 18:00:01;;;;;;;8.18;2.25;;;;;;;;;;4906757;29;20194;-73
2022/08/13 18:02:27;;;;;;;7.78;2.38;;;;;;;;;;4904389;29;20353;-73
2022/08/13 18:04:52;;;;;;;9.10;2.95;;;;;;;;;;4906936;29;20183;-73
2022/08/13 18:07:19;;;;;;;3.80;2.40;;;;;;;;;;4904912;29;20194;-73
2022/08/13 18:09:45;;;;;;;6.15;2.53;;;;;;;;;;4906613;29;20197;-73
2022/08/13 18:12:12;;;;;;;7.55;2.10;;;;;;;;;;4905056;29;20191;-73
2022/08/13 18:14:37;;;;;;;9.45;2.45;;;;;;;;;;4896536;29;20175;-73
2022/08/13 18:17:03;;;;;;;8.55;2.53;;;;;;;;;;4909956;29;20213;-73
2022/08/13 18:24:58;;;;;;;6.15;2.33;;;;;;;;;;4935307;29;20280;-73
2022/08/13 18:27:24;;;;;;;6.53;2.20;;;;;;;;;;4913993;29;20700;-73
2022/08/13 18:37:55;;;;;;;5.57;2.38;;;;;;;;;;4950953;28;20252;-73
2022/08/13 18:40:22;;;;;;;3.92;1.98;;;;;;;;;;4943565;28;20174;-74
2022/08/13 18:42:48;;;;;;;2.72;2.15;;;;;;;;;;4939884;29;20181;-73
2022/08/13 18:45:15;;;;;;;2.25;2.03;;;;;;;;;;4951748;28;20185;-73
2022/08/13 18:47:40;;;;;;;6.40;2.15;;;;;;;;;;4956663;28;20487;-73
2022/08/13 18:50:07;;;;;;;2.47;2.15;;;;;;;;;;4935944;28;20185;-73
2022/08/13 18:52:32;;;;;;;2.10;1.90;;;;;;;;;;4928994;28;20189;-73
2022/08/13 18:54:57;;;;;;;2.75;2.13;;;;;;;;;;4936743;29;20186;-73
2022/08/13 18:57:22;;;;;;;2.97;2.33;;;;;;;;;;4946034;28;20206;-73
2022/08/13 18:59:48;;;;;;;3.72;1.90;;;;;;;;;;4946172;28;20186;-73
2022/08/13 19:02:13;;;;;;;2.35;2.15;;;;;;;;;;4937501;28;20228;-73
2022/08/13 19:04:39;;;;;;;3.13;2.45;;;;;;;;;;4958855;28;20178;-73
2022/08/13 19:07:05;;;;;;;2.53;2.33;;;;;;;;;;4935278;29;20544;-73
2022/08/13 19:09:30;;;;;;;2.10;2.00;;;;;;;;;;4949031;28;20185;-73
2022/08/13 19:11:56;;;;;;;2.45;2.25;;;;;;;;;;4939867;28;20204;-73
2022/08/13 19:14:23;;;;;;;2.33;2.13;;;;;;;;;;4952152;28;20192;-73
2022/08/13 19:16:48;;;;;;;2.50;2.10;;;;;;;;;;4953530;28;20197;-73
2022/08/13 19:19:14;;;;;;;2.35;2.15;;;;;;;;;;4941841;28;20178;-73
2022/08/13 19:21:39;;;;;;;2.35;2.22;;;;;;;;;;4937499;29;20278;-73
2022/08/13 19:24:05;;;;;;;2.58;2.15;;;;;;;;;;4950741;29;20186;-73
2022/08/13 19:26:30;;;;;;;2.35;2.15;;;;;;;;;;4951254;28;20189;-73
2022/08/13 19:28:58;;;;;;;3.88;2.28;;;;;;;;;;4951258;28;20260;-73
2022/08/13 19:31:24;;;;;;;3.42;2.33;;;;;;;;;;4934815;28;20224;-73
2022/08/13 19:33:49;;;;;;;3.05;2.30;;;;;;;;;;4937276;28;20197;-73
2022/08/13 19:36:18;;;;;;;2.92;2.60;;;;;;;;;;4943318;29;20233;-73
2022/08/13 19:38:46;;;;;;;8.80;8.07;;;;;;;;;;4936064;29;20182;-73
2022/08/13 19:41:11;;;;;;;3.30;3.00;;;;;;;;;;4951365;28;20176;-73
2022/08/13 19:43:37;;;;;;;3.45;2.63;;;;;;;;;;4952134;29;20186;-73
2022/08/13 19:46:02;;;;;;;3.65;2.80;;;;;;;;;;4936504;28;20193;-73
2022/08/13 19:48:27;;;;;;;3.40;3.10;;;;;;;;;;4939364;28;20208;-73
2022/08/13 19:50:53;;;;;;;2.70;2.50;;;;;;;;;;4937048;29;20182;-73
2022/08/13 19:53:18;;;;;;;2.97;2.65;;;;;;;;;;4948306;28;20208;-73
2022/08/13 19:55:43;;;;;;;2.65;2.45;;;;;;;;;;4953672;28;20182;-73
2022/08/13 19:58:09;;;;;;;2.65;2.45;;;;;;;;;;4934813;29;20205;-73
2022/08/13 20:00:35;;;;;;;2.40;2.20;;;;;;;;;;4934453;29;20192;-73
2022/08/13 20:03:02;;;;;;;2.30;2.20;;;;;;;;;;4939090;28;20305;-73
2022/08/13 20:05:30;;;;;;;5.13;2.40;;;;;;;;;;4952369;28;20366;-73
2022/08/13 20:07:57;;;;;;;6.47;2.33;;;;;;;;;;4940635;28;20197;-73
2022/08/13 20:10:23;;;;;;;3.10;2.90;;;;;;;;;;4936789;28;20245;-73
2022/08/13 20:12:49;;;;;;;3.38;2.63;;;;;;;;;;4933091;28;20237;-72
2022/08/13 20:15:14;;;;;;;2.58;2.38;;;;;;;;;;4932099;28;20189;-73
2022/08/13 20:17:40;;;;;;;2.03;1.92;;;;;;;;;;4934904;29;20209;-72
2022/08/13 20:20:08;;;;;;;3.28;2.40;;;;;;;;;;4933222;28;20181;-73
2022/08/13 20:22:33;;;;;;;2.45;2.25;;;;;;;;;;4925949;29;20225;-73
2022/08/13 20:25:07;;;;;;;2.30;2.20;;;;;;;;;;4955573;28;20223;-72
2022/08/13 20:27:34;;;;;;;2.00;1.90;;;;;;;;;;4928569;28;20176;-73
2022/08/13 20:30:00;;;;;;;1.98;1.88;;;;;;;;;;4942374;28;20186;-73
2022/08/13 20:32:26;;;;;;;2.53;2.33;;;;;;;;;;4933125;28;20196;-73